Midland, Michigan
Current Conditions -  °F | °C
As of 11:51 AM on Wednesday 22 Oct 2014 (Local Time) from KIKW Reporting Station
Overcast Overcast  
Wind Chill: 46°   Ceiling: 2000
Heat Index: 46°   Visibility: 10mi
Dew Point: 38°   Wind: 3mph
Humidity: 71%   Direction: 30°NNE
Pressure: 30.38"   Gusts: NA
Location:  43.62°N, 84.22°W
Report Text: KIKW 221551Z AUTO 03003KT 10SM OVC020 08/03 A3038 RMK AO2 T00800031
Loading
Personal Weather Stations






























Interactive Weather Map
Tropical Storm Tracking
New forecast layout! Learn more

10-Day Weather Forecast

Advertisements
Track Severe Weather on mobile